sensor_id;sensor_type;location;lat;lon;timestamp;temperature;humidity
18888;DHT22;9576;47.792;9.628;2024-02-16T00:01:38;7.00;99.90
18888;DHT22;9576;47.792;9.628;2024-02-16T00:04:39;7.00;99.90
18888;DHT22;9576;47.792;9.628;2024-02-16T00:07:42;6.90;99.90
18888;DHT22;9576;47.792;9.628;2024-02-16T00:10:44;6.90;99.90
18888;DHT22;9576;47.792;9.628;2024-02-16T00:13:46;6.90;99.90
18888;DHT22;9576;47.792;9.628;2024-02-16T00:16:48;6.80;99.90
18888;DHT22;9576;47.792;9.628;2024-02-16T00:19:49;6.80;99.90
18888;DHT22;9576;47.792;9.628;2024-02-16T00:22:53;6.80;99.90
18888;DHT22;9576;47.792;9.628;2024-02-16T00:25:54;6.80;99.90
18888;DHT22;9576;47.792;9.628;2024-02-16T00:28:56;6.80;99.90
18888;DHT22;9576;47.792;9.628;2024-02-16T00:31:58;6.80;99.90
18888;DHT22;9576;47.792;9.628;2024-02-16T00:35:00;6.80;99.90
18888;DHT22;9576;47.792;9.628;2024-02-16T00:38:03;6.80;99.90
18888;DHT22;9576;47.792;9.628;2024-02-16T00:41:05;6.80;99.90
18888;DHT22;9576;47.792;9.628;2024-02-16T00:44:07;6.80;99.90
18888;DHT22;9576;47.792;9.628;2024-02-16T00:47:09;6.80;99.90
18888;DHT22;9576;47.792;9.628;2024-02-16T00:50:11;6.80;99.90
18888;DHT22;9576;47.792;9.628;2024-02-16T00:53:14;6.80;99.90
18888;DHT22;9576;47.792;9.628;2024-02-16T00:56:16;6.80;99.90
18888;DHT22;9576;47.792;9.628;2024-02-16T00:59:18;6.80;99.90
18888;DHT22;9576;47.792;9.628;2024-02-16T01:02:19;6.80;99.90
18888;DHT22;9576;47.792;9.628;2024-02-16T01:05:22;6.80;99.90
18888;DHT22;9576;47.792;9.628;2024-02-16T01:08:25;6.70;99.90
18888;DHT22;9576;47.792;9.628;2024-02-16T01:11:27;6.70;99.90
18888;DHT22;9576;47.792;9.628;2024-02-16T01:14:29;6.70;99.90
18888;DHT22;9576;47.792;9.628;2024-02-16T01:17:31;6.70;99.90
18888;DHT22;9576;47.792;9.628;2024-02-16T01:20:33;6.70;99.90
18888;DHT22;9576;47.792;9.628;2024-02-16T01:23:36;6.70;99.90
18888;DHT22;9576;47.792;9.628;2024-02-16T01:26:38;6.70;99.90
18888;DHT22;9576;47.792;9.628;2024-02-16T01:29:40;6.70;99.90
18888;DHT22;9576;47.792;9.628;2024-02-16T01:32:42;6.70;99.90
18888;DHT22;9576;47.792;9.628;2024-02-16T01:35:43;6.70;99.90
18888;DHT22;9576;47.792;9.628;2024-02-16T01:38:47;6.70;99.90
18888;DHT22;9576;47.792;9.628;2024-02-16T01:41:49;6.70;99.90
18888;DHT22;9576;47.792;9.628;2024-02-16T01:44:51;6.70;99.90
18888;DHT22;9576;47.792;9.628;2024-02-16T01:47:53;6.70;99.90
18888;DHT22;9576;47.792;9.628;2024-02-16T01:50:55;6.60;99.90
18888;DHT22;9576;47.792;9.628;2024-02-16T01:53:58;6.60;99.90
18888;DHT22;9576;47.792;9.628;2024-02-16T01:57:01;6.60;99.90
18888;DHT22;9576;47.792;9.628;2024-02-16T02:00:03;6.60;99.90
18888;DHT22;9576;47.792;9.628;2024-02-16T02:03:07;6.60;99.90
18888;DHT22;9576;47.792;9.628;2024-02-16T02:06:10;6.60;99.90
18888;DHT22;9576;47.792;9.628;2024-02-16T02:09:13;6.60;99.90
18888;DHT22;9576;47.792;9.628;2024-02-16T02:12:14;6.50;99.90
18888;DHT22;9576;47.792;9.628;2024-02-16T02:15:16;6.50;99.90
18888;DHT22;9576;47.792;9.628;2024-02-16T02:18:19;6.60;99.90
18888;DHT22;9576;47.792;9.628;2024-02-16T02:21:21;6.50;99.90
18888;DHT22;9576;47.792;9.628;2024-02-16T02:24:24;6.60;99.90
18888;DHT22;9576;47.792;9.628;2024-02-16T02:27:26;6.50;99.90
18888;DHT22;9576;47.792;9.628;2024-02-16T02:30:27;6.50;99.90
18888;DHT22;9576;47.792;9.628;2024-02-16T02:33:29;6.50;99.90
18888;DHT22;9576;47.792;9.628;2024-02-16T02:36:31;6.40;99.90
18888;DHT22;9576;47.792;9.628;2024-02-16T02:39:35;6.40;99.90
18888;DHT22;9576;47.792;9.628;2024-02-16T02:42:37;6.40;99.90
18888;DHT22;9576;47.792;9.628;2024-02-16T02:45:39;6.40;99.90
18888;DHT22;9576;47.792;9.628;2024-02-16T02:48:40;6.30;99.90
18888;DHT22;9576;47.792;9.628;2024-02-16T02:51:42;6.20;99.90
18888;DHT22;9576;47.792;9.628;2024-02-16T02:54:45;6.20;99.90
18888;DHT22;9576;47.792;9.628;2024-02-16T02:57:47;6.10;99.90
18888;DHT22;9576;47.792;9.628;2024-02-16T03:00:48;6.20;99.90
18888;DHT22;9576;47.792;9.628;2024-02-16T03:03:50;6.20;99.90
18888;DHT22;9576;47.792;9.628;2024-02-16T03:06:52;6.30;99.90
18888;DHT22;9576;47.792;9.628;2024-02-16T03:09:55;6.20;99.90
18888;DHT22;9576;47.792;9.628;2024-02-16T03:12:57;6.30;99.90
18888;DHT22;9576;47.792;9.628;2024-02-16T03:15:58;6.30;99.90
18888;DHT22;9576;47.792;9.628;2024-02-16T03:19:00;6.30;99.90
18888;DHT22;9576;47.792;9.628;2024-02-16T03:22:02;6.30;99.90
18888;DHT22;9576;47.792;9.628;2024-02-16T03:25:05;6.30;99.90
18888;DHT22;9576;47.792;9.628;2024-02-16T03:28:08;6.30;99.90
18888;DHT22;9576;47.792;9.628;2024-02-16T03:31:14;6.30;99.90
18888;DHT22;9576;47.792;9.628;2024-02-16T03:34:16;6.30;99.90
18888;DHT22;9576;47.792;9.628;2024-02-16T03:37:17;6.30;99.90
18888;DHT22;9576;47.792;9.628;2024-02-16T03:40:20;6.30;99.90
18888;DHT22;9576;47.792;9.628;2024-02-16T03:43:22;6.30;99.90
18888;DHT22;9576;47.792;9.628;2024-02-16T03:46:24;6.30;99.90
18888;DHT22;9576;47.792;9.628;2024-02-16T03:49:25;6.20;99.90
18888;DHT22;9576;47.792;9.628;2024-02-16T03:52:28;6.20;99.90
18888;DHT22;9576;47.792;9.628;2024-02-16T03:55:32;6.20;99.90
18888;DHT22;9576;47.792;9.628;2024-02-16T03:58:36;6.10;99.90
18888;DHT22;9576;47.792;9.628;2024-02-16T04:01:38;6.20;99.90
18888;DHT22;9576;47.792;9.628;2024-02-16T04:04:42;6.10;99.90
18888;DHT22;9576;47.792;9.628;2024-02-16T04:07:44;6.10;99.90
18888;DHT22;9576;47.792;9.628;2024-02-16T04:10:47;6.00;99.90
18888;DHT22;9576;47.792;9.628;2024-02-16T04:13:48;6.00;99.90
18888;DHT22;9576;47.792;9.628;2024-02-16T04:16:50;5.90;99.90
18888;DHT22;9576;47.792;9.628;2024-02-16T04:19:52;5.90;99.90
18888;DHT22;9576;47.792;9.628;2024-02-16T04:22:54;5.80;99.90
18888;DHT22;9576;47.792;9.628;2024-02-16T04:25:57;5.80;99.90
18888;DHT22;9576;47.792;9.628;2024-02-16T04:28:58;5.70;99.90
18888;DHT22;9576;47.792;9.628;2024-02-16T04:32:00;5.70;99.90
18888;DHT22;9576;47.792;9.628;2024-02-16T04:35:02;5.70;99.90
18888;DHT22;9576;47.792;9.628;2024-02-16T04:38:04;5.70;99.90
18888;DHT22;9576;47.792;9.628;2024-02-16T04:41:08;5.70;99.90
18888;DHT22;9576;47.792;9.628;2024-02-16T04:44:10;5.70;99.90
18888;DHT22;9576;47.792;9.628;2024-02-16T04:47:13;5.60;99.90
18888;DHT22;9576;47.792;9.628;2024-02-16T04:50:15;5.60;99.90
18888;DHT22;9576;47.792;9.628;2024-02-16T04:53:16;5.50;99.90
18888;DHT22;9576;47.792;9.628;2024-02-16T04:56:19;5.40;99.90
18888;DHT22;9576;47.792;9.628;2024-02-16T04:59:23;5.40;99.90
18888;DHT22;9576;47.792;9.628;2024-02-16T05:02:25;5.40;99.90
18888;DHT22;9576;47.792;9.628;2024-02-16T05:05:26;5.30;99.90
18888;DHT22;9576;47.792;9.628;2024-02-16T05:08:28;5.30;99.90
18888;DHT22;9576;47.792;9.628;2024-02-16T05:11:33;5.30;99.90
18888;DHT22;9576;47.792;9.628;2024-02-16T05:14:34;5.30;99.90
18888;DHT22;9576;47.792;9.628;2024-02-16T05:17:36;5.20;99.90
18888;DHT22;9576;47.792;9.628;2024-02-16T05:20:38;5.20;99.90
18888;DHT22;9576;47.792;9.628;2024-02-16T05:23:40;5.20;99.90
18888;DHT22;9576;47.792;9.628;2024-02-16T05:26:43;5.10;99.90
18888;DHT22;9576;47.792;9.628;2024-02-16T05:29:46;5.10;99.90
18888;DHT22;9576;47.792;9.628;2024-02-16T05:32:48;5.20;99.90
18888;DHT22;9576;47.792;9.628;2024-02-16T05:35:50;5.10;99.90
18888;DHT22;9576;47.792;9.628;2024-02-16T05:38:55;5.10;99.90
18888;DHT22;9576;47.792;9.628;2024-02-16T05:42:01;5.10;99.90
18888;DHT22;9576;47.792;9.628;2024-02-16T05:45:03;5.10;99.90
18888;DHT22;9576;47.792;9.628;2024-02-16T05:48:07;5.00;99.90
18888;DHT22;9576;47.792;9.628;2024-02-16T05:51:10;5.10;99.90
18888;DHT22;9576;47.792;9.628;2024-02-16T05:54:13;5.10;99.90
18888;DHT22;9576;47.792;9.628;2024-02-16T05:57:16;5.00;99.90
18888;DHT22;9576;47.792;9.628;2024-02-16T06:00:18;5.00;99.90
18888;DHT22;9576;47.792;9.628;2024-02-16T06:03:21;5.00;99.90
18888;DHT22;9576;47.792;9.628;2024-02-16T06:06:23;5.00;99.90
18888;DHT22;9576;47.792;9.628;2024-02-16T06:09:25;5.00;99.90
18888;DHT22;9576;47.792;9.628;2024-02-16T06:12:37;4.90;99.90
18888;DHT22;9576;47.792;9.628;2024-02-16T06:15:39;4.80;99.90
18888;DHT22;9576;47.792;9.628;2024-02-16T06:18:40;4.80;99.90
18888;DHT22;9576;47.792;9.628;2024-02-16T06:21:42;4.80;99.90
18888;DHT22;9576;47.792;9.628;2024-02-16T06:24:44;4.70;99.90
18888;DHT22;9576;47.792;9.628;2024-02-16T06:27:47;4.70;99.90
18888;DHT22;9576;47.792;9.628;2024-02-16T06:30:49;4.70;99.90
18888;DHT22;9576;47.792;9.628;2024-02-16T06:33:50;4.70;99.90
18888;DHT22;9576;47.792;9.628;2024-02-16T06:36:52;4.70;99.90
18888;DHT22;9576;47.792;9.628;2024-02-16T06:39:54;4.70;99.90
18888;DHT22;9576;47.792;9.628;2024-02-16T06:42:57;4.70;99.90
18888;DHT22;9576;47.792;9.628;2024-02-16T06:45:59;4.70;99.90
18888;DHT22;9576;47.792;9.628;2024-02-16T06:49:00;4.70;99.90
18888;DHT22;9576;47.792;9.628;2024-02-16T06:52:02;4.70;99.90
18888;DHT22;9576;47.792;9.628;2024-02-16T06:55:04;4.70;99.90
18888;DHT22;9576;47.792;9.628;2024-02-16T06:58:08;4.70;99.90
18888;DHT22;9576;47.792;9.628;2024-02-16T07:01:09;4.70;99.90
18888;DHT22;9576;47.792;9.628;2024-02-16T07:04:11;4.70;99.90
18888;DHT22;9576;47.792;9.628;2024-02-16T07:07:13;4.80;99.90
18888;DHT22;9576;47.792;9.628;2024-02-16T07:10:14;4.80;99.90
18888;DHT22;9576;47.792;9.628;2024-02-16T07:13:18;4.80;99.90
18888;DHT22;9576;47.792;9.628;2024-02-16T07:16:19;4.90;99.90
18888;DHT22;9576;47.792;9.628;2024-02-16T07:19:21;4.90;99.90
18888;DHT22;9576;47.792;9.628;2024-02-16T07:22:23;4.80;99.90
18888;DHT22;9576;47.792;9.628;2024-02-16T07:25:24;4.90;99.90
18888;DHT22;9576;47.792;9.628;2024-02-16T07:28:27;4.90;99.90
18888;DHT22;9576;47.792;9.628;2024-02-16T07:31:31;5.00;99.90
18888;DHT22;9576;47.792;9.628;2024-02-16T07:34:33;5.00;99.90
18888;DHT22;9576;47.792;9.628;2024-02-16T07:37:35;5.00;99.90
18888;DHT22;9576;47.792;9.628;2024-02-16T07:40:36;5.10;99.90
18888;DHT22;9576;47.792;9.628;2024-02-16T07:43:39;5.10;99.90
18888;DHT22;9576;47.792;9.628;2024-02-16T07:46:41;5.20;99.90
18888;DHT22;9576;47.792;9.628;2024-02-16T07:49:43;5.30;99.90
18888;DHT22;9576;47.792;9.628;2024-02-16T07:52:46;5.40;99.90
18888;DHT22;9576;47.792;9.628;2024-02-16T07:55:47;5.50;99.90
18888;DHT22;9576;47.792;9.628;2024-02-16T07:58:50;5.50;99.90
18888;DHT22;9576;47.792;9.628;2024-02-16T08:01:53;5.50;99.90
18888;DHT22;9576;47.792;9.628;2024-02-16T08:04:54;5.50;99.90
18888;DHT22;9576;47.792;9.628;2024-02-16T08:07:56;5.60;99.90
18888;DHT22;9576;47.792;9.628;2024-02-16T08:10:58;5.50;99.90
18888;DHT22;9576;47.792;9.628;2024-02-16T08:14:01;5.70;99.90
18888;DHT22;9576;47.792;9.628;2024-02-16T08:17:03;5.80;99.90
18888;DHT22;9576;47.792;9.628;2024-02-16T08:20:05;5.80;99.90
18888;DHT22;9576;47.792;9.628;2024-02-16T08:23:07;5.90;99.90
18888;DHT22;9576;47.792;9.628;2024-02-16T08:26:09;6.00;99.90
18888;DHT22;9576;47.792;9.628;2024-02-16T08:29:12;6.00;99.90
18888;DHT22;9576;47.792;9.628;2024-02-16T08:32:14;6.10;99.90
18888;DHT22;9576;47.792;9.628;2024-02-16T08:35:16;6.10;99.90
18888;DHT22;9576;47.792;9.628;2024-02-16T08:38:19;6.10;99.90
18888;DHT22;9576;47.792;9.628;2024-02-16T08:41:21;6.10;99.90
18888;DHT22;9576;47.792;9.628;2024-02-16T08:44:26;6.10;99.90
18888;DHT22;9576;47.792;9.628;2024-02-16T08:47:28;6.20;99.90
18888;DHT22;9576;47.792;9.628;2024-02-16T08:50:30;6.30;99.90
18888;DHT22;9576;47.792;9.628;2024-02-16T08:53:31;6.40;99.90
18888;DHT22;9576;47.792;9.628;2024-02-16T08:56:33;6.40;99.90
18888;DHT22;9576;47.792;9.628;2024-02-16T08:59:37;6.50;99.90
18888;DHT22;9576;47.792;9.628;2024-02-16T09:02:39;6.50;99.90
18888;DHT22;9576;47.792;9.628;2024-02-16T09:05:40;6.60;99.90
18888;DHT22;9576;47.792;9.628;2024-02-16T09:08:43;6.70;99.90
18888;DHT22;9576;47.792;9.628;2024-02-16T09:11:45;6.80;99.90
18888;DHT22;9576;47.792;9.628;2024-02-16T09:14:48;7.00;99.90
18888;DHT22;9576;47.792;9.628;2024-02-16T09:17:50;7.10;99.90
18888;DHT22;9576;47.792;9.628;2024-02-16T09:20:53;7.30;99.90
18888;DHT22;9576;47.792;9.628;2024-02-16T09:23:55;7.30;99.90
18888;DHT22;9576;47.792;9.628;2024-02-16T09:26:58;7.40;99.90
18888;DHT22;9576;47.792;9.628;2024-02-16T09:30:05;7.50;99.90
18888;DHT22;9576;47.792;9.628;2024-02-16T09:33:07;7.70;99.90
18888;DHT22;9576;47.792;9.628;2024-02-16T09:36:09;7.80;99.90
18888;DHT22;9576;47.792;9.628;2024-02-16T09:39:12;7.90;99.90
18888;DHT22;9576;47.792;9.628;2024-02-16T09:42:13;8.10;99.90
18888;DHT22;9576;47.792;9.628;2024-02-16T09:45:18;8.20;99.90
18888;DHT22;9576;47.792;9.628;2024-02-16T09:48:19;8.50;99.90
18888;DHT22;9576;47.792;9.628;2024-02-16T09:51:22;8.60;99.90
18888;DHT22;9576;47.792;9.628;2024-02-16T09:54:23;8.80;99.90
18888;DHT22;9576;47.792;9.628;2024-02-16T09:57:25;9.00;99.90
18888;DHT22;9576;47.792;9.628;2024-02-16T10:00:28;9.20;99.90
18888;DHT22;9576;47.792;9.628;2024-02-16T10:03:30;9.40;99.90
18888;DHT22;9576;47.792;9.628;2024-02-16T10:06:45;9.50;99.90
18888;DHT22;9576;47.792;9.628;2024-02-16T10:09:47;9.80;99.90
18888;DHT22;9576;47.792;9.628;2024-02-16T10:12:49;10.00;99.90
18888;DHT22;9576;47.792;9.628;2024-02-16T10:15:52;10.10;99.90
18888;DHT22;9576;47.792;9.628;2024-02-16T10:19:05;10.30;99.90
18888;DHT22;9576;47.792;9.628;2024-02-16T10:22:07;10.30;99.90
18888;DHT22;9576;47.792;9.628;2024-02-16T10:25:10;10.40;99.90
18888;DHT22;9576;47.792;9.628;2024-02-16T10:28:13;10.50;99.90
18888;DHT22;9576;47.792;9.628;2024-02-16T10:31:18;10.60;99.90
18888;DHT22;9576;47.792;9.628;2024-02-16T10:34:25;10.70;99.90
18888;DHT22;9576;47.792;9.628;2024-02-16T10:37:28;10.80;99.90
18888;DHT22;9576;47.792;9.628;2024-02-16T10:40:30;10.80;99.90
18888;DHT22;9576;47.792;9.628;2024-02-16T10:43:32;10.90;99.90
18888;DHT22;9576;47.792;9.628;2024-02-16T10:46:35;11.00;99.90
18888;DHT22;9576;47.792;9.628;2024-02-16T10:49:37;11.10;99.90
18888;DHT22;9576;47.792;9.628;2024-02-16T10:52:39;11.10;99.90
18888;DHT22;9576;47.792;9.628;2024-02-16T10:55:42;11.30;99.90
18888;DHT22;9576;47.792;9.628;2024-02-16T10:58:46;11.50;99.90
18888;DHT22;9576;47.792;9.628;2024-02-16T11:01:58;11.70;99.90
18888;DHT22;9576;47.792;9.628;2024-02-16T11:05:00;11.80;99.90
18888;DHT22;9576;47.792;9.628;2024-02-16T11:08:11;11.90;99.90
18888;DHT22;9576;47.792;9.628;2024-02-16T11:11:13;12.00;99.90
18888;DHT22;9576;47.792;9.628;2024-02-16T11:14:23;12.20;99.90
18888;DHT22;9576;47.792;9.628;2024-02-16T11:17:27;12.30;99.90
18888;DHT22;9576;47.792;9.628;2024-02-16T11:20:35;12.30;99.90
18888;DHT22;9576;47.792;9.628;2024-02-16T11:23:38;12.40;99.90
18888;DHT22;9576;47.792;9.628;2024-02-16T11:26:44;12.40;99.90
18888;DHT22;9576;47.792;9.628;2024-02-16T11:29:46;12.60;99.90
18888;DHT22;9576;47.792;9.628;2024-02-16T11:32:49;12.70;99.90
18888;DHT22;9576;47.792;9.628;2024-02-16T11:35:52;12.90;99.90
18888;DHT22;9576;47.792;9.628;2024-02-16T11:38:56;13.10;99.90
18888;DHT22;9576;47.792;9.628;2024-02-16T11:42:01;13.30;99.90
18888;DHT22;9576;47.792;9.628;2024-02-16T11:45:03;13.30;99.90
18888;DHT22;9576;47.792;9.628;2024-02-16T11:48:07;13.50;99.90
18888;DHT22;9576;47.792;9.628;2024-02-16T11:51:10;13.60;99.90
18888;DHT22;9576;47.792;9.628;2024-02-16T11:54:12;13.80;99.90
18888;DHT22;9576;47.792;9.628;2024-02-16T11:57:13;13.90;99.90
18888;DHT22;9576;47.792;9.628;2024-02-16T12:00:15;14.10;99.90
18888;DHT22;9576;47.792;9.628;2024-02-16T12:03:19;14.40;99.90
18888;DHT22;9576;47.792;9.628;2024-02-16T12:06:22;14.60;99.90
18888;DHT22;9576;47.792;9.628;2024-02-16T12:09:24;14.60;99.90
18888;DHT22;9576;47.792;9.628;2024-02-16T12:12:25;14.80;99.90
18888;DHT22;9576;47.792;9.628;2024-02-16T12:15:27;14.80;99.90
18888;DHT22;9576;47.792;9.628;2024-02-16T12:18:30;14.90;99.90
18888;DHT22;9576;47.792;9.628;2024-02-16T12:21:32;14.90;99.90
18888;DHT22;9576;47.792;9.628;2024-02-16T12:24:34;14.80;99.90
18888;DHT22;9576;47.792;9.628;2024-02-16T12:27:35;14.70;99.90
18888;DHT22;9576;47.792;9.628;2024-02-16T12:30:37;14.70;99.90
18888;DHT22;9576;47.792;9.628;2024-02-16T12:33:41;14.80;99.90
18888;DHT22;9576;47.792;9.628;2024-02-16T12:36:43;14.80;99.90
18888;DHT22;9576;47.792;9.628;2024-02-16T12:39:45;14.80;99.90
18888;DHT22;9576;47.792;9.628;2024-02-16T12:42:48;14.80;99.90
18888;DHT22;9576;47.792;9.628;2024-02-16T12:45:49;14.90;99.90
18888;DHT22;9576;47.792;9.628;2024-02-16T12:48:52;15.20;99.90
18888;DHT22;9576;47.792;9.628;2024-02-16T12:51:54;15.60;99.90
18888;DHT22;9576;47.792;9.628;2024-02-16T12:54:56;16.00;99.90
18888;DHT22;9576;47.792;9.628;2024-02-16T12:57:59;16.50;99.90
18888;DHT22;9576;47.792;9.628;2024-02-16T13:01:00;16.60;99.90
18888;DHT22;9576;47.792;9.628;2024-02-16T13:04:04;16.50;99.90
18888;DHT22;9576;47.792;9.628;2024-02-16T13:07:06;16.20;99.90
18888;DHT22;9576;47.792;9.628;2024-02-16T13:10:08;16.10;99.90
18888;DHT22;9576;47.792;9.628;2024-02-16T13:13:10;16.00;99.90
18888;DHT22;9576;47.792;9.628;2024-02-16T13:16:11;16.00;99.90
18888;DHT22;9576;47.792;9.628;2024-02-16T13:19:14;16.20;99.90
18888;DHT22;9576;47.792;9.628;2024-02-16T13:22:18;16.40;99.90
18888;DHT22;9576;47.792;9.628;2024-02-16T13:25:19;16.60;99.90
18888;DHT22;9576;47.792;9.628;2024-02-16T13:28:21;16.60;99.90
18888;DHT22;9576;47.792;9.628;2024-02-16T13:31:23;16.70;99.90
18888;DHT22;9576;47.792;9.628;2024-02-16T13:34:26;16.70;99.90
18888;DHT22;9576;47.792;9.628;2024-02-16T13:37:28;16.70;99.90
18888;DHT22;9576;47.792;9.628;2024-02-16T13:40:29;16.80;99.90
18888;DHT22;9576;47.792;9.628;2024-02-16T13:43:33;16.80;99.90
18888;DHT22;9576;47.792;9.628;2024-02-16T13:46:35;16.70;99.90
18888;DHT22;9576;47.792;9.628;2024-02-16T13:49:38;16.70;99.90
18888;DHT22;9576;47.792;9.628;2024-02-16T13:52:40;16.90;99.90
18888;DHT22;9576;47.792;9.628;2024-02-16T13:55:42;16.90;99.90
18888;DHT22;9576;47.792;9.628;2024-02-16T13:58:44;17.00;99.90
18888;DHT22;9576;47.792;9.628;2024-02-16T14:01:47;17.10;99.90
18888;DHT22;9576;47.792;9.628;2024-02-16T14:04:50;17.00;99.90
18888;DHT22;9576;47.792;9.628;2024-02-16T14:07:52;16.80;99.90
18888;DHT22;9576;47.792;9.628;2024-02-16T14:10:54;16.70;99.90
18888;DHT22;9576;47.792;9.628;2024-02-16T14:13:56;16.60;99.90
18888;DHT22;9576;47.792;9.628;2024-02-16T14:16:58;16.50;99.90
18888;DHT22;9576;47.792;9.628;2024-02-16T14:20:01;16.40;99.90
18888;DHT22;9576;47.792;9.628;2024-02-16T14:23:03;16.50;99.90
18888;DHT22;9576;47.792;9.628;2024-02-16T14:26:08;16.40;99.90
18888;DHT22;9576;47.792;9.628;2024-02-16T14:29:10;16.40;99.90
18888;DHT22;9576;47.792;9.628;2024-02-16T14:32:12;16.40;99.90
18888;DHT22;9576;47.792;9.628;2024-02-16T14:35:15;16.30;99.90
18888;DHT22;9576;47.792;9.628;2024-02-16T14:38:16;16.20;99.90
18888;DHT22;9576;47.792;9.628;2024-02-16T14:41:18;16.10;99.90
18888;DHT22;9576;47.792;9.628;2024-02-16T14:44:21;16.00;99.90
18888;DHT22;9576;47.792;9.628;2024-02-16T14:47:23;15.90;99.90
18888;DHT22;9576;47.792;9.628;2024-02-16T14:50:26;15.70;99.90
18888;DHT22;9576;47.792;9.628;2024-02-16T14:53:28;15.60;99.90
18888;DHT22;9576;47.792;9.628;2024-02-16T14:56:30;15.40;99.90
18888;DHT22;9576;47.792;9.628;2024-02-16T14:59:32;15.30;99.90
18888;DHT22;9576;47.792;9.628;2024-02-16T15:02:34;15.20;99.90
18888;DHT22;9576;47.792;9.628;2024-02-16T15:05:39;15.10;99.90
18888;DHT22;9576;47.792;9.628;2024-02-16T15:08:41;15.00;99.90
18888;DHT22;9576;47.792;9.628;2024-02-16T15:11:42;15.00;99.90
18888;DHT22;9576;47.792;9.628;2024-02-16T15:14:44;14.90;99.90
18888;DHT22;9576;47.792;9.628;2024-02-16T15:17:46;14.80;99.90
18888;DHT22;9576;47.792;9.628;2024-02-16T15:20:50;14.80;99.90
18888;DHT22;9576;47.792;9.628;2024-02-16T15:23:51;14.70;99.90
18888;DHT22;9576;47.792;9.628;2024-02-16T15:26:53;14.70;99.90
18888;DHT22;9576;47.792;9.628;2024-02-16T15:29:55;14.70;99.90
18888;DHT22;9576;47.792;9.628;2024-02-16T15:32:56;14.60;99.90
18888;DHT22;9576;47.792;9.628;2024-02-16T15:35:59;14.40;99.90
18888;DHT22;9576;47.792;9.628;2024-02-16T15:39:01;14.40;99.90
18888;DHT22;9576;47.792;9.628;2024-02-16T15:42:03;14.20;99.90
18888;DHT22;9576;47.792;9.628;2024-02-16T15:45:05;14.20;99.90
18888;DHT22;9576;47.792;9.628;2024-02-16T15:48:07;14.10;99.90
18888;DHT22;9576;47.792;9.628;2024-02-16T15:51:10;14.00;99.90
18888;DHT22;9576;47.792;9.628;2024-02-16T15:54:12;14.00;99.90
18888;DHT22;9576;47.792;9.628;2024-02-16T15:57:14;13.90;99.90
18888;DHT22;9576;47.792;9.628;2024-02-16T16:00:16;13.80;99.90
18888;DHT22;9576;47.792;9.628;2024-02-16T16:03:18;13.80;99.90
18888;DHT22;9576;47.792;9.628;2024-02-16T16:06:21;13.70;99.90
18888;DHT22;9576;47.792;9.628;2024-02-16T16:09:22;13.70;99.90
18888;DHT22;9576;47.792;9.628;2024-02-16T16:12:24;13.70;99.90
18888;DHT22;9576;47.792;9.628;2024-02-16T16:15:26;13.70;99.90
18888;DHT22;9576;47.792;9.628;2024-02-16T16:18:28;13.60;99.90
18888;DHT22;9576;47.792;9.628;2024-02-16T16:21:35;13.50;99.90
18888;DHT22;9576;47.792;9.628;2024-02-16T16:24:36;13.50;99.90
18888;DHT22;9576;47.792;9.628;2024-02-16T16:27:38;13.40;99.90
18888;DHT22;9576;47.792;9.628;2024-02-16T16:30:40;13.50;99.90
18888;DHT22;9576;47.792;9.628;2024-02-16T16:33:42;13.40;99.90
18888;DHT22;9576;47.792;9.628;2024-02-16T16:36:45;13.40;99.90
18888;DHT22;9576;47.792;9.628;2024-02-16T16:39:46;13.20;99.90
18888;DHT22;9576;47.792;9.628;2024-02-16T16:42:48;13.20;99.90
18888;DHT22;9576;47.792;9.628;2024-02-16T16:45:50;13.10;99.90
18888;DHT22;9576;47.792;9.628;2024-02-16T16:48:51;13.00;99.90
18888;DHT22;9576;47.792;9.628;2024-02-16T16:51:55;13.00;99.90
18888;DHT22;9576;47.792;9.628;2024-02-16T16:54:56;12.90;99.90
18888;DHT22;9576;47.792;9.628;2024-02-16T16:57:58;12.80;99.90
18888;DHT22;9576;47.792;9.628;2024-02-16T17:01:00;12.80;99.90
18888;DHT22;9576;47.792;9.628;2024-02-16T17:04:01;12.80;99.90
18888;DHT22;9576;47.792;9.628;2024-02-16T17:07:05;12.80;99.90
18888;DHT22;9576;47.792;9.628;2024-02-16T17:10:07;12.80;99.90
18888;DHT22;9576;47.792;9.628;2024-02-16T17:13:13;12.80;99.90
18888;DHT22;9576;47.792;9.628;2024-02-16T17:16:15;12.80;99.90
18888;DHT22;9576;47.792;9.628;2024-02-16T17:19:16;12.80;99.90
18888;DHT22;9576;47.792;9.628;2024-02-16T17:22:19;12.80;99.90
18888;DHT22;9576;47.792;9.628;2024-02-16T17:25:21;12.80;99.90
18888;DHT22;9576;47.792;9.628;2024-02-16T17:28:24;12.80;99.90
18888;DHT22;9576;47.792;9.628;2024-02-16T17:31:25;12.80;99.90
18888;DHT22;9576;47.792;9.628;2024-02-16T17:34:27;12.70;99.90
18888;DHT22;9576;47.792;9.628;2024-02-16T17:37:30;12.70;99.90
18888;DHT22;9576;47.792;9.628;2024-02-16T17:40:32;12.70;99.90
18888;DHT22;9576;47.792;9.628;2024-02-16T17:43:33;12.60;99.90
18888;DHT22;9576;47.792;9.628;2024-02-16T17:46:37;12.60;99.90
18888;DHT22;9576;47.792;9.628;2024-02-16T17:49:39;12.50;99.90
18888;DHT22;9576;47.792;9.628;2024-02-16T17:52:42;12.50;99.90
18888;DHT22;9576;47.792;9.628;2024-02-16T17:55:44;12.40;99.90
18888;DHT22;9576;47.792;9.628;2024-02-16T17:58:45;12.40;99.90
18888;DHT22;9576;47.792;9.628;2024-02-16T18:01:47;12.30;99.90
18888;DHT22;9576;47.792;9.628;2024-02-16T18:04:49;12.30;99.90
18888;DHT22;9576;47.792;9.628;2024-02-16T18:07:52;12.30;99.90
18888;DHT22;9576;47.792;9.628;2024-02-16T18:10:54;12.30;99.90
18888;DHT22;9576;47.792;9.628;2024-02-16T18:13:55;12.30;99.90
18888;DHT22;9576;47.792;9.628;2024-02-16T18:16:57;12.30;99.90
18888;DHT22;9576;47.792;9.628;2024-02-16T18:19:59;12.30;99.90
18888;DHT22;9576;47.792;9.628;2024-02-16T18:23:04;12.30;99.90
18888;DHT22;9576;47.792;9.628;2024-02-16T18:26:06;12.30;99.90
18888;DHT22;9576;47.792;9.628;2024-02-16T18:29:07;12.30;99.90
18888;DHT22;9576;47.792;9.628;2024-02-16T18:32:09;12.30;99.90
18888;DHT22;9576;47.792;9.628;2024-02-16T18:35:12;12.30;99.90
18888;DHT22;9576;47.792;9.628;2024-02-16T18:38:15;12.30;99.90
18888;DHT22;9576;47.792;9.628;2024-02-16T18:41:16;12.20;99.90
18888;DHT22;9576;47.792;9.628;2024-02-16T18:44:18;12.20;99.90
18888;DHT22;9576;47.792;9.628;2024-02-16T18:47:20;12.20;99.90
18888;DHT22;9576;47.792;9.628;2024-02-16T18:50:22;12.20;99.90
18888;DHT22;9576;47.792;9.628;2024-02-16T18:53:25;12.20;99.90
18888;DHT22;9576;47.792;9.628;2024-02-16T18:56:27;12.10;99.90
18888;DHT22;9576;47.792;9.628;2024-02-16T18:59:29;12.10;99.90
18888;DHT22;9576;47.792;9.628;2024-02-16T19:02:30;12.10;99.90
18888;DHT22;9576;47.792;9.628;2024-02-16T19:05:32;12.10;99.90
18888;DHT22;9576;47.792;9.628;2024-02-16T19:08:35;12.10;99.90
18888;DHT22;9576;47.792;9.628;2024-02-16T19:11:37;12.10;99.90
18888;DHT22;9576;47.792;9.628;2024-02-16T19:14:38;12.10;99.90
18888;DHT22;9576;47.792;9.628;2024-02-16T19:17:40;12.10;99.90
18888;DHT22;9576;47.792;9.628;2024-02-16T19:20:42;12.10;99.90
18888;DHT22;9576;47.792;9.628;2024-02-16T19:23:45;12.10;99.90
18888;DHT22;9576;47.792;9.628;2024-02-16T19:26:47;12.10;99.90
18888;DHT22;9576;47.792;9.628;2024-02-16T19:29:48;12.10;99.90
18888;DHT22;9576;47.792;9.628;2024-02-16T19:32:50;12.00;99.90
18888;DHT22;9576;47.792;9.628;2024-02-16T19:35:52;12.00;99.90
18888;DHT22;9576;47.792;9.628;2024-02-16T19:38:56;12.00;99.90
18888;DHT22;9576;47.792;9.628;2024-02-16T19:41:57;12.00;99.90